Time;durP1;ratioP1;P1;durP2;ratioP2;P2;SDS_P1;SDS_P2;PMS_P1;PMS_P2;Temp;Humidity;BMP_temperature;BMP_pressure;BME280_temperature;BME280_humidity;BME280_pressure;Samples;Min_cycle;Max_cycle;Signal;HPM_P1;HPM_P2
2023/04/03 00:00:49;;;;;;;4.20;2.80;;;;;;;;;;5046533;28;20232;-84
2023/04/03 00:03:15;;;;;;;2.60;2.00;;;;;;;;;;5030379;28;20186;-84
2023/04/03 00:05:41;;;;;;;3.50;2.50;;;;;;;;;;5045160;28;20179;-84
2023/04/03 00:08:09;;;;;;;7.77;2.87;;;;;;;;;;5015154;28;20194;-84
2023/04/03 00:10:36;;;;;;;6.00;2.20;;;;;;;;;;5050819;28;20208;-84
2023/04/03 00:13:02;;;;;;;2.50;2.10;;;;;;;;;;5044062;28;20194;-84
2023/04/03 00:15:28;;;;;;;5.13;2.30;;;;;;;;;;5014173;28;20516;-85
2023/04/03 00:17:54;;;;;;;4.23;2.30;;;;;;;;;;5049899;28;20895;-84
2023/04/03 00:20:21;;;;;;;5.93;3.53;;;;;;;;;;5031876;28;20257;-85
2023/04/03 00:22:47;;;;;;;4.60;2.60;;;;;;;;;;5047264;28;20190;-85
2023/04/03 00:25:13;;;;;;;4.57;2.10;;;;;;;;;;5031931;28;20794;-83
2023/04/03 00:27:40;;;;;;;2.73;2.20;;;;;;;;;;5032331;28;20230;-83
2023/04/03 00:30:08;;;;;;;2.37;2.03;;;;;;;;;;5044533;28;20190;-84
2023/04/03 00:32:34;;;;;;;4.30;2.20;;;;;;;;;;5041217;28;20237;-84
2023/04/03 00:35:00;;;;;;;4.10;2.60;;;;;;;;;;5013099;28;20221;-84
2023/04/03 00:37:26;;;;;;;3.77;2.30;;;;;;;;;;5049519;28;20204;-84
2023/04/03 00:39:52;;;;;;;2.80;2.13;;;;;;;;;;5032581;28;20259;-84
2023/04/03 00:42:18;;;;;;;3.00;2.60;;;;;;;;;;5024926;28;20207;-84
2023/04/03 00:44:44;;;;;;;3.23;2.30;;;;;;;;;;5023726;28;20260;-85
2023/04/03 00:47:16;;;;;;;2.90;2.40;;;;;;;;;;5032855;28;20189;-84
2023/04/03 00:49:43;;;;;;;2.20;2.00;;;;;;;;;;5049095;28;20186;-85
2023/04/03 00:52:12;;;;;;;2.30;2.10;;;;;;;;;;5048189;28;20218;-84
2023/04/03 00:54:39;;;;;;;2.73;2.53;;;;;;;;;;5015689;28;20808;-84
2023/04/03 00:57:06;;;;;;;3.80;2.77;;;;;;;;;;5014122;28;20653;-84
2023/04/03 00:59:33;;;;;;;5.20;2.83;;;;;;;;;;5049369;28;20751;-85
2023/04/03 01:02:00;;;;;;;3.13;2.80;;;;;;;;;;5032489;28;20212;-84
2023/04/03 01:04:27;;;;;;;3.10;2.80;;;;;;;;;;5049967;28;20178;-84
2023/04/03 01:06:55;;;;;;;3.23;2.70;;;;;;;;;;5049555;28;20189;-84
2023/04/03 01:09:22;;;;;;;3.73;3.10;;;;;;;;;;5049234;28;20839;-85
2023/04/03 01:11:48;;;;;;;3.27;2.90;;;;;;;;;;5048946;28;20216;-84
2023/04/03 01:14:14;;;;;;;3.43;3.00;;;;;;;;;;5031942;28;20541;-85
2023/04/03 01:16:40;;;;;;;3.50;3.00;;;;;;;;;;5049501;28;20614;-85
2023/04/03 01:19:08;;;;;;;5.30;3.07;;;;;;;;;;5051018;28;20205;-84
2023/04/03 01:21:54;;;;;;;3.97;2.87;;;;;;;;;;5051625;28;20206;-84
2023/04/03 01:24:47;;;;;;;4.53;3.20;;;;;;;;;;5032102;28;20536;-85
2023/04/03 01:27:14;;;;;;;4.67;3.17;;;;;;;;;;5023312;28;20544;-84
2023/04/03 01:29:40;;;;;;;3.43;2.90;;;;;;;;;;5048352;28;20196;-85
2023/04/03 01:32:07;;;;;;;3.27;2.97;;;;;;;;;;5048526;28;20206;-84
2023/04/03 01:34:38;;;;;;;3.57;2.87;;;;;;;;;;5022746;28;20280;-85
2023/04/03 01:37:05;;;;;;;2.97;2.70;;;;;;;;;;5048062;28;20177;-85
2023/04/03 01:39:31;;;;;;;4.63;3.30;;;;;;;;;;5045015;28;20233;-85
2023/04/03 01:41:59;;;;;;;7.23;3.30;;;;;;;;;;5031588;28;20251;-85
2023/04/03 01:44:32;;;;;;;3.60;3.10;;;;;;;;;;5010052;28;20213;-83
2023/04/03 01:46:58;;;;;;;3.90;3.00;;;;;;;;;;5029679;28;20209;-84
2023/04/03 01:49:27;;;;;;;3.70;3.37;;;;;;;;;;5029748;28;20941;-85
2023/04/03 01:51:53;;;;;;;4.77;2.80;;;;;;;;;;5031098;28;20221;-84
2023/04/03 01:54:20;;;;;;;3.70;2.87;;;;;;;;;;5031279;28;20189;-84
2023/04/03 01:56:46;;;;;;;5.87;3.20;;;;;;;;;;5031863;28;20774;-85
2023/04/03 01:59:13;;;;;;;3.43;2.67;;;;;;;;;;5015710;28;20294;-83
2023/04/03 02:01:39;;;;;;;3.17;2.60;;;;;;;;;;5015827;28;20594;-84
2023/04/03 02:04:06;;;;;;;5.90;3.10;;;;;;;;;;5014901;28;20174;-84
2023/04/03 02:06:32;;;;;;;5.33;3.10;;;;;;;;;;5034495;28;20194;-85
2023/04/03 02:08:58;;;;;;;3.03;2.67;;;;;;;;;;5052634;28;20180;-84
2023/04/03 02:11:25;;;;;;;3.97;3.17;;;;;;;;;;5052333;28;20204;-84
2023/04/03 02:13:51;;;;;;;5.63;3.13;;;;;;;;;;5034945;28;20196;-84
2023/04/03 02:16:17;;;;;;;3.93;2.80;;;;;;;;;;5036126;28;20205;-85
2023/04/03 02:18:43;;;;;;;4.43;2.97;;;;;;;;;;5052541;28;20575;-83
2023/04/03 02:21:09;;;;;;;3.43;2.90;;;;;;;;;;5052836;28;20285;-84
2023/04/03 02:23:36;;;;;;;3.97;2.83;;;;;;;;;;5035035;28;20551;-84
2023/04/03 02:26:10;;;;;;;5.07;3.10;;;;;;;;;;5036151;28;20227;-85
2023/04/03 02:28:36;;;;;;;4.80;3.03;;;;;;;;;;5036323;28;20231;-85
2023/04/03 02:31:03;;;;;;;5.43;3.60;;;;;;;;;;5037436;28;20734;-85
2023/04/03 02:33:30;;;;;;;5.03;3.30;;;;;;;;;;5021264;28;20209;-83
2023/04/03 02:35:57;;;;;;;4.43;3.70;;;;;;;;;;5058682;28;20247;-85
2023/04/03 02:38:23;;;;;;;4.50;3.50;;;;;;;;;;5054215;28;20343;-83
2023/04/03 02:40:50;;;;;;;4.40;3.37;;;;;;;;;;5054255;28;20209;-84
2023/04/03 02:43:17;;;;;;;3.90;3.20;;;;;;;;;;5037564;28;20178;-85
2023/04/03 02:45:43;;;;;;;5.37;3.80;;;;;;;;;;5038538;28;20205;-85
2023/04/03 02:48:09;;;;;;;5.33;3.60;;;;;;;;;;5021296;28;20181;-84
2023/04/03 02:50:36;;;;;;;5.93;3.50;;;;;;;;;;5037302;28;20224;-83
2023/04/03 02:53:02;;;;;;;5.47;3.83;;;;;;;;;;5036867;28;20198;-85
2023/04/03 02:55:28;;;;;;;4.33;3.20;;;;;;;;;;5021311;28;20634;-85
2023/04/03 02:57:56;;;;;;;4.73;3.40;;;;;;;;;;5022895;28;20186;-83
2023/04/03 03:00:22;;;;;;;7.97;3.73;;;;;;;;;;5020244;28;20182;-84
2023/04/03 03:02:49;;;;;;;4.37;3.80;;;;;;;;;;5034903;28;20558;-84
2023/04/03 03:05:15;;;;;;;4.30;3.90;;;;;;;;;;5061613;28;20224;-85
2023/04/03 03:07:41;;;;;;;4.60;3.60;;;;;;;;;;5033538;28;20192;-85
2023/04/03 03:10:08;;;;;;;4.60;3.60;;;;;;;;;;5058116;28;20623;-83
2023/04/03 03:12:34;;;;;;;4.87;3.63;;;;;;;;;;5038234;28;20209;-83
2023/04/03 03:15:00;;;;;;;4.57;4.10;;;;;;;;;;5040294;28;20182;-84
2023/04/03 03:17:27;;;;;;;4.53;3.90;;;;;;;;;;5039492;28;20245;-84
2023/04/03 03:19:53;;;;;;;5.20;3.60;;;;;;;;;;5053339;28;20220;-84
2023/04/03 03:22:19;;;;;;;5.07;3.50;;;;;;;;;;5035412;28;20284;-85
2023/04/03 03:24:45;;;;;;;4.13;3.60;;;;;;;;;;5035571;28;20189;-84
2023/04/03 03:27:12;;;;;;;3.70;3.40;;;;;;;;;;5019384;28;20231;-84
2023/04/03 03:29:38;;;;;;;4.70;3.50;;;;;;;;;;5054893;28;20239;-84
2023/04/03 03:32:05;;;;;;;4.57;3.70;;;;;;;;;;5054234;28;20202;-85
2023/04/03 03:34:31;;;;;;;5.57;3.43;;;;;;;;;;5038873;28;20644;-84
2023/04/03 03:36:59;;;;;;;4.67;3.50;;;;;;;;;;5031136;28;20186;-84
2023/04/03 03:39:25;;;;;;;5.00;3.67;;;;;;;;;;5051154;28;20214;-83
2023/04/03 03:41:53;;;;;;;5.10;3.90;;;;;;;;;;5053960;28;20213;-86
2023/04/03 03:44:20;;;;;;;4.70;3.90;;;;;;;;;;5021256;28;20282;-88
2023/04/03 03:46:46;;;;;;;5.90;3.97;;;;;;;;;;5045685;28;20186;-83
2023/04/03 03:49:12;;;;;;;4.47;4.00;;;;;;;;;;5024394;28;20183;-86
2023/04/03 03:51:40;;;;;;;4.63;3.80;;;;;;;;;;5052643;28;20227;-85
2023/04/03 03:54:07;;;;;;;8.17;4.00;;;;;;;;;;5035477;28;20238;-84
2023/04/03 03:56:34;;;;;;;5.53;3.87;;;;;;;;;;5035582;28;20217;-84
2023/04/03 03:59:00;;;;;;;5.23;3.77;;;;;;;;;;5032947;28;20297;-84
2023/04/03 04:01:26;;;;;;;4.53;3.60;;;;;;;;;;5019442;28;20251;-84
2023/04/03 04:03:54;;;;;;;5.13;4.30;;;;;;;;;;5058996;28;20178;-84
2023/04/03 04:06:24;;;;;;;4.77;4.27;;;;;;;;;;5051265;28;20293;-85
2023/04/03 04:08:52;;;;;;;5.75;5.05;;;;;;;;;;5051664;28;20415;-84
2023/04/03 04:11:21;;;;;;;7.73;5.70;;;;;;;;;;5035355;28;20209;-84
2023/04/03 04:13:48;;;;;;;6.00;5.27;;;;;;;;;;5037899;28;20178;-84
2023/04/03 04:16:16;;;;;;;7.03;5.23;;;;;;;;;;5042447;28;20541;-84
2023/04/03 04:18:43;;;;;;;8.23;5.53;;;;;;;;;;5051308;28;20209;-84
2023/04/03 04:21:09;;;;;;;9.37;6.43;;;;;;;;;;5035061;28;20204;-84
2023/04/03 04:23:37;;;;;;;9.13;6.13;;;;;;;;;;5035547;28;20186;-83
2023/04/03 04:26:03;;;;;;;7.67;5.33;;;;;;;;;;5053571;28;20530;-84
2023/04/03 04:28:33;;;;;;;7.10;4.97;;;;;;;;;;5014404;28;20190;-84
2023/04/03 04:31:01;;;;;;;5.37;4.70;;;;;;;;;;5033410;28;20221;-82
2023/04/03 04:33:28;;;;;;;5.30;4.03;;;;;;;;;;5033839;28;20197;-84
2023/04/03 04:35:57;;;;;;;6.47;4.20;;;;;;;;;;5036739;28;20739;-84
2023/04/03 04:38:23;;;;;;;5.23;4.33;;;;;;;;;;5034784;28;20601;-82
2023/04/03 04:40:52;;;;;;;4.50;4.07;;;;;;;;;;5051767;28;20682;-85
2023/04/03 04:43:18;;;;;;;6.53;4.23;;;;;;;;;;5033945;28;20280;-86
2023/04/03 04:45:47;;;;;;;5.77;4.10;;;;;;;;;;5033458;28;20204;-78
2023/04/03 04:48:14;;;;;;;5.93;4.97;;;;;;;;;;5043301;28;20427;-80
2023/04/03 04:50:41;;;;;;;7.37;5.13;;;;;;;;;;5047155;28;20210;-83
2023/04/03 04:53:08;;;;;;;7.17;5.10;;;;;;;;;;5001610;28;20248;-85
2023/04/03 04:55:34;;;;;;;7.93;5.43;;;;;;;;;;5006435;28;20241;-85
2023/04/03 04:58:00;;;;;;;8.93;5.63;;;;;;;;;;5035163;28;20204;-85
2023/04/03 05:00:27;;;;;;;9.83;5.83;;;;;;;;;;5048851;28;20705;-84
2023/04/03 05:02:53;;;;;;;7.90;5.73;;;;;;;;;;5022537;28;20186;-85
2023/04/03 05:05:20;;;;;;;7.63;4.90;;;;;;;;;;5033104;28;20181;-86
2023/04/03 05:07:46;;;;;;;9.50;5.37;;;;;;;;;;5034146;28;20232;-82
2023/04/03 05:10:13;;;;;;;7.33;5.00;;;;;;;;;;5048000;28;20268;-83
2023/04/03 05:12:40;;;;;;;7.10;5.20;;;;;;;;;;5028973;28;20254;-80
2023/04/03 05:15:06;;;;;;;7.10;5.17;;;;;;;;;;5049800;28;20175;-79
2023/04/03 05:17:33;;;;;;;8.10;5.37;;;;;;;;;;5048344;28;20658;-80
2023/04/03 05:19:59;;;;;;;7.53;4.80;;;;;;;;;;5033140;28;20262;-76
2023/04/03 05:22:27;;;;;;;6.10;5.00;;;;;;;;;;5049932;28;20201;-79
2023/04/03 05:24:57;;;;;;;6.10;4.90;;;;;;;;;;5039639;28;20291;-77
2023/04/03 05:27:24;;;;;;;6.33;5.37;;;;;;;;;;5050131;28;20662;-79
2023/04/03 05:29:53;;;;;;;6.30;4.70;;;;;;;;;;5030337;28;20200;-80
2023/04/03 05:32:22;;;;;;;6.60;4.63;;;;;;;;;;5045426;28;20242;-80
2023/04/03 05:34:52;;;;;;;6.23;4.80;;;;;;;;;;5058773;28;20875;-82
2023/04/03 05:37:20;;;;;;;5.60;4.57;;;;;;;;;;5031615;28;20209;-80
2023/04/03 05:39:46;;;;;;;5.53;4.27;;;;;;;;;;5046489;28;20206;-79
2023/04/03 05:42:13;;;;;;;5.93;4.37;;;;;;;;;;5036322;28;20208;-79
2023/04/03 05:44:40;;;;;;;5.13;4.43;;;;;;;;;;5048852;28;20178;-81
2023/04/03 05:47:07;;;;;;;6.67;4.17;;;;;;;;;;5031307;28;20276;-80
2023/04/03 05:49:33;;;;;;;5.73;4.30;;;;;;;;;;5034499;28;20269;-79
2023/04/03 05:51:59;;;;;;;6.57;5.10;;;;;;;;;;5054406;28;20729;-80
2023/04/03 05:54:29;;;;;;;5.97;4.57;;;;;;;;;;5063457;28;20717;-80
2023/04/03 05:57:05;;;;;;;5.10;4.60;;;;;;;;;;5063399;28;20178;-79
2023/04/03 05:59:31;;;;;;;6.00;5.00;;;;;;;;;;5045786;28;20697;-81
2023/04/03 06:02:01;;;;;;;7.07;5.27;;;;;;;;;;5049571;28;20274;-80
2023/04/03 06:04:27;;;;;;;5.53;4.53;;;;;;;;;;5029686;28;20192;-80
2023/04/03 06:06:55;;;;;;;10.17;6.23;;;;;;;;;;5055561;28;20194;-79
2023/04/03 06:09:22;;;;;;;8.60;5.77;;;;;;;;;;5032074;28;20898;-79
2023/04/03 06:11:48;;;;;;;7.03;5.40;;;;;;;;;;5048056;28;20275;-79
2023/04/03 06:14:16;;;;;;;7.43;5.33;;;;;;;;;;5031690;28;20718;-79
2023/04/03 06:16:42;;;;;;;10.13;6.40;;;;;;;;;;5048633;28;20197;-79
2023/04/03 06:19:09;;;;;;;9.97;6.30;;;;;;;;;;5031457;28;20205;-80
2023/04/03 06:21:37;;;;;;;9.67;6.30;;;;;;;;;;5064494;28;20197;-79
2023/04/03 06:24:04;;;;;;;8.17;5.97;;;;;;;;;;5048008;28;20221;-79
2023/04/03 06:26:33;;;;;;;8.13;4.80;;;;;;;;;;5049459;28;20178;-79
2023/04/03 06:28:59;;;;;;;5.63;3.87;;;;;;;;;;5048883;28;20590;-79
2023/04/03 06:31:25;;;;;;;5.70;3.70;;;;;;;;;;5030428;28;20228;-80
2023/04/03 06:33:51;;;;;;;4.73;3.53;;;;;;;;;;5038482;28;20657;-79
2023/04/03 06:36:21;;;;;;;6.47;3.70;;;;;;;;;;5047476;28;20215;-80
2023/04/03 06:38:48;;;;;;;7.53;3.40;;;;;;;;;;5046674;28;20611;-79
2023/04/03 06:41:16;;;;;;;5.67;3.60;;;;;;;;;;5047229;28;20685;-80
2023/04/03 06:43:42;;;;;;;5.33;3.67;;;;;;;;;;5046121;28;20194;-79
2023/04/03 06:46:13;;;;;;;5.60;3.70;;;;;;;;;;5049283;28;20181;-79
2023/04/03 06:48:39;;;;;;;5.53;3.40;;;;;;;;;;5043579;28;20204;-79
2023/04/03 06:51:06;;;;;;;4.33;3.30;;;;;;;;;;5044051;28;20224;-79
2023/04/03 06:53:32;;;;;;;5.33;3.50;;;;;;;;;;5045818;28;20554;-79
2023/04/03 06:55:58;;;;;;;4.47;3.60;;;;;;;;;;5050784;28;20197;-79
2023/04/03 06:58:24;;;;;;;5.97;3.40;;;;;;;;;;5050120;28;20210;-79
2023/04/03 07:00:51;;;;;;;5.83;3.57;;;;;;;;;;5048529;28;20205;-80
2023/04/03 07:03:17;;;;;;;6.67;3.47;;;;;;;;;;5041120;28;20178;-79
2023/04/03 07:05:44;;;;;;;4.50;3.03;;;;;;;;;;5050292;28;20186;-80
2023/04/03 07:08:10;;;;;;;4.70;3.43;;;;;;;;;;5049056;28;20190;-80
2023/04/03 07:10:38;;;;;;;4.40;3.20;;;;;;;;;;5049733;28;20199;-78
2023/04/03 07:13:04;;;;;;;7.00;3.73;;;;;;;;;;5031910;28;20261;-80
2023/04/03 07:15:30;;;;;;;8.80;3.30;;;;;;;;;;5066121;28;20205;-79
2023/04/03 07:17:56;;;;;;;5.03;3.17;;;;;;;;;;5049990;28;20194;-80
2023/04/03 07:20:22;;;;;;;4.53;2.80;;;;;;;;;;5049020;28;20303;-80
2023/04/03 07:22:48;;;;;;;3.90;2.83;;;;;;;;;;5043632;28;20277;-80
2023/04/03 07:25:16;;;;;;;5.50;3.27;;;;;;;;;;5051818;28;20689;-79
2023/04/03 07:27:42;;;;;;;4.17;2.87;;;;;;;;;;5032576;28;20272;-79
2023/04/03 07:30:09;;;;;;;5.37;2.97;;;;;;;;;;5046567;28;20626;-79
2023/04/03 07:32:35;;;;;;;5.03;3.30;;;;;;;;;;5047139;28;20210;-80
2023/04/03 07:35:01;;;;;;;4.57;2.97;;;;;;;;;;5052296;28;20194;-82
2023/04/03 07:37:28;;;;;;;5.73;3.20;;;;;;;;;;5048862;28;20193;-81
2023/04/03 07:39:54;;;;;;;5.43;3.40;;;;;;;;;;5042719;28;20256;-81
2023/04/03 07:42:21;;;;;;;6.83;4.40;;;;;;;;;;5047412;28;20691;-81
2023/04/03 07:44:47;;;;;;;5.27;3.40;;;;;;;;;;5053200;28;20247;-81
2023/04/03 07:47:16;;;;;;;5.27;3.03;;;;;;;;;;5050531;28;20178;-81
2023/04/03 07:49:43;;;;;;;5.17;2.80;;;;;;;;;;5050462;28;20212;-80
2023/04/03 07:52:10;;;;;;;4.93;3.00;;;;;;;;;;5034703;28;20217;-81
2023/04/03 07:54:36;;;;;;;8.40;3.23;;;;;;;;;;5050386;28;20281;-80
2023/04/03 07:57:02;;;;;;;7.33;3.10;;;;;;;;;;5052688;28;21025;-80
2023/04/03 07:59:29;;;;;;;7.23;3.77;;;;;;;;;;5049020;28;20198;-80
2023/04/03 08:01:55;;;;;;;4.80;3.37;;;;;;;;;;5051152;28;20204;-77
2023/04/03 08:04:22;;;;;;;7.50;3.40;;;;;;;;;;5051355;28;20566;-80
2023/04/03 08:06:53;;;;;;;5.03;2.57;;;;;;;;;;5053010;28;20178;-77
2023/04/03 08:09:19;;;;;;;3.67;2.20;;;;;;;;;;5044508;28;20677;-77
2023/04/03 08:11:46;;;;;;;3.87;1.90;;;;;;;;;;5047610;28;20699;-76
2023/04/03 08:14:16;;;;;;;4.60;2.13;;;;;;;;;;5052897;28;20190;-79
2023/04/03 08:16:45;;;;;;;5.63;2.27;;;;;;;;;;5050902;28;20178;-80
2023/04/03 08:19:12;;;;;;;4.43;2.00;;;;;;;;;;5048011;28;20217;-80
2023/04/03 08:21:41;;;;;;;6.40;4.07;;;;;;;;;;5051144;28;20189;-80
2023/04/03 08:24:08;;;;;;;3.53;2.10;;;;;;;;;;5049261;28;20201;-81
2023/04/03 08:26:34;;;;;;;2.57;1.97;;;;;;;;;;5050067;28;20776;-78
2023/04/03 08:29:01;;;;;;;4.20;2.07;;;;;;;;;;5050327;28;20192;-79
2023/04/03 08:31:27;;;;;;;4.90;1.83;;;;;;;;;;5055049;28;20248;-77
2023/04/03 08:33:53;;;;;;;3.53;1.90;;;;;;;;;;5047466;28;20185;-77
2023/04/03 08:36:20;;;;;;;3.33;2.00;;;;;;;;;;5044989;28;20186;-76
2023/04/03 08:38:46;;;;;;;4.50;2.17;;;;;;;;;;5052575;28;20672;-77
2023/04/03 08:41:31;;;;;;;4.83;1.70;;;;;;;;;;5049869;28;20248;-76
2023/04/03 08:44:24;;;;;;;5.03;1.90;;;;;;;;;;5051397;28;20190;-76
2023/04/03 08:47:03;;;;;;;4.70;1.87;;;;;;;;;;5042456;28;20194;-76
2023/04/03 08:49:29;;;;;;;4.17;2.10;;;;;;;;;;5052091;28;20177;-76
2023/04/03 08:51:56;;;;;;;3.13;1.83;;;;;;;;;;5050786;28;20791;-76
2023/04/03 08:54:25;;;;;;;2.20;1.70;;;;;;;;;;5050351;28;20182;-76
2023/04/03 08:56:53;;;;;;;3.60;1.90;;;;;;;;;;5049746;28;20726;-76
2023/04/03 08:59:24;;;;;;;3.50;1.80;;;;;;;;;;5050866;28;20206;-76
2023/04/03 09:01:51;;;;;;;4.40;1.90;;;;;;;;;;5051146;28;20204;-77
2023/04/03 09:04:18;;;;;;;3.83;2.30;;;;;;;;;;5050541;28;20177;-77
2023/04/03 09:06:50;;;;;;;5.43;1.80;;;;;;;;;;5033233;28;20232;-77
2023/04/03 09:09:22;;;;;;;3.10;1.73;;;;;;;;;;5031040;28;20167;-77
2023/04/03 09:11:54;;;;;;;2.50;1.60;;;;;;;;;;5030882;28;20197;-76
2023/04/03 09:14:34;;;;;;;4.57;2.10;;;;;;;;;;5049334;28;20181;-77
2023/04/03 09:17:03;;;;;;;3.80;1.90;;;;;;;;;;5048975;28;20193;-77
2023/04/03 09:19:35;;;;;;;2.20;1.50;;;;;;;;;;5050942;28;20695;-77
2023/04/03 09:22:17;;;;;;;4.57;1.77;;;;;;;;;;5049642;28;20210;-77
2023/04/03 09:24:49;;;;;;;3.57;1.60;;;;;;;;;;5050525;28;20273;-77
2023/04/03 09:27:15;;;;;;;4.07;1.80;;;;;;;;;;5042377;28;20175;-77
2023/04/03 09:29:45;;;;;;;7.20;2.07;;;;;;;;;;5038729;28;20186;-77
2023/04/03 09:32:30;;;;;;;2.60;1.60;;;;;;;;;;5042479;28;20201;-78
2023/04/03 09:34:58;;;;;;;2.20;1.40;;;;;;;;;;5050606;28;20829;-77
2023/04/03 09:37:36;;;;;;;4.10;1.93;;;;;;;;;;5050049;28;20177;-77
2023/04/03 09:40:04;;;;;;;3.07;1.70;;;;;;;;;;5050122;28;20236;-78
2023/04/03 09:42:31;;;;;;;2.83;1.40;;;;;;;;;;5049830;28;20518;-77
2023/04/03 09:45:01;;;;;;;1.80;1.43;;;;;;;;;;5050391;28;20182;-78
2023/04/03 09:47:29;;;;;;;3.13;1.60;;;;;;;;;;5050336;28;20205;-77
2023/04/03 09:50:13;;;;;;;4.27;1.63;;;;;;;;;;5050275;28;20182;-78
2023/04/03 09:52:40;;;;;;;2.40;1.50;;;;;;;;;;5048595;28;20693;-77
2023/04/03 09:55:36;;;;;;;4.47;1.80;;;;;;;;;;5050275;28;20178;-78
2023/04/03 09:58:04;;;;;;;3.67;1.40;;;;;;;;;;5035637;28;20560;-77
2023/04/03 10:00:40;;;;;;;2.50;1.20;;;;;;;;;;5049979;28;20190;-77
2023/04/03 10:03:23;;;;;;;2.30;1.40;;;;;;;;;;5049319;28;20181;-77
2023/04/03 10:05:53;;;;;;;2.67;1.30;;;;;;;;;;5049863;28;20182;-77
2023/04/03 10:08:26;;;;;;;1.83;1.27;;;;;;;;;;5047184;28;20235;-78
2023/04/03 10:11:10;;;;;;;2.13;1.53;;;;;;;;;;5048204;28;20205;-78
2023/04/03 10:13:49;;;;;;;2.70;1.50;;;;;;;;;;5045477;28;20285;-77
2023/04/03 10:16:18;;;;;;;2.40;1.57;;;;;;;;;;5049023;28;20735;-77
2023/04/03 10:19:05;;;;;;;3.37;1.50;;;;;;;;;;5043461;28;20201;-77
2023/04/03 10:21:51;;;;;;;3.00;1.30;;;;;;;;;;5045182;28;20202;-77
2023/04/03 10:24:17;;;;;;;2.50;1.50;;;;;;;;;;5059228;28;20185;-76
2023/04/03 10:27:02;;;;;;;2.50;1.67;;;;;;;;;;5046957;28;20174;-83
2023/04/03 10:29:31;;;;;;;2.73;1.57;;;;;;;;;;5030832;28;20839;-79
2023/04/03 10:32:10;;;;;;;2.60;1.53;;;;;;;;;;5049802;28;20205;-82
2023/04/03 10:34:38;;;;;;;5.10;1.70;;;;;;;;;;5059079;28;20598;-78
2023/04/03 10:37:10;;;;;;;4.07;1.73;;;;;;;;;;5045674;28;20190;-77
2023/04/03 10:39:36;;;;;;;3.27;1.57;;;;;;;;;;5052262;28;20189;-78
2023/04/03 10:42:26;;;;;;;2.70;1.40;;;;;;;;;;5050723;28;20251;-77
2023/04/03 10:44:52;;;;;;;3.33;1.67;;;;;;;;;;5028685;28;20189;-76
2023/04/03 10:47:21;;;;;;;4.67;1.70;;;;;;;;;;5036961;28;20227;-75
2023/04/03 10:50:13;;;;;;;3.20;1.50;;;;;;;;;;5051630;28;20185;-77
2023/04/03 10:53:02;;;;;;;1.93;1.33;;;;;;;;;;5049680;28;20225;-77
2023/04/03 10:55:37;;;;;;;3.00;1.70;;;;;;;;;;5045661;28;20223;-77
2023/04/03 10:58:04;;;;;;;2.60;1.50;;;;;;;;;;5052376;28;20230;-77
2023/04/03 11:00:44;;;;;;;3.90;1.70;;;;;;;;;;5052136;28;20257;-77
2023/04/03 11:03:15;;;;;;;3.10;1.80;;;;;;;;;;5041927;28;20216;-76
2023/04/03 11:05:43;;;;;;;2.53;1.40;;;;;;;;;;5051585;28;20611;-76
2023/04/03 11:08:26;;;;;;;2.00;1.40;;;;;;;;;;5046419;28;20181;-77
2023/04/03 11:10:54;;;;;;;1.93;1.50;;;;;;;;;;5050740;28;20194;-76
2023/04/03 11:13:25;;;;;;;2.10;1.43;;;;;;;;;;5047012;28;20182;-77
2023/04/03 11:15:53;;;;;;;2.40;1.67;;;;;;;;;;5044903;28;20189;-77
2023/04/03 11:18:22;;;;;;;2.13;1.53;;;;;;;;;;5050088;28;20252;-77
2023/04/03 11:20:54;;;;;;;3.47;1.57;;;;;;;;;;5049444;28;20202;-75
2023/04/03 11:23:24;;;;;;;2.37;1.70;;;;;;;;;;5050131;28;20201;-77
2023/04/03 11:25:52;;;;;;;4.73;1.80;;;;;;;;;;5046629;28;20276;-77
2023/04/03 11:28:18;;;;;;;3.07;1.60;;;;;;;;;;5047706;28;20603;-77
2023/04/03 11:31:00;;;;;;;3.27;1.60;;;;;;;;;;5046714;28;20248;-78
2023/04/03 11:33:29;;;;;;;2.70;1.47;;;;;;;;;;5044597;28;20266;-78
2023/04/03 11:35:58;;;;;;;3.13;1.70;;;;;;;;;;5051726;28;20174;-78
2023/04/03 11:38:29;;;;;;;3.00;1.53;;;;;;;;;;5047543;28;20205;-78
2023/04/03 11:40:56;;;;;;;3.23;1.97;;;;;;;;;;5049839;28;20696;-77
2023/04/03 11:43:22;;;;;;;3.10;2.10;;;;;;;;;;5050134;28;20174;-77
2023/04/03 11:46:01;;;;;;;3.67;1.83;;;;;;;;;;5045635;28;20170;-77
2023/04/03 11:48:28;;;;;;;2.57;1.67;;;;;;;;;;5047788;28;20240;-78
2023/04/03 11:50:55;;;;;;;3.60;1.83;;;;;;;;;;5047846;28;20746;-78
2023/04/03 11:53:34;;;;;;;4.53;1.93;;;;;;;;;;5048867;28;20781;-76
2023/04/03 11:56:02;;;;;;;4.33;2.00;;;;;;;;;;5046438;28;20215;-76
2023/04/03 11:58:29;;;;;;;3.33;2.00;;;;;;;;;;5046738;28;20292;-75
2023/04/03 12:01:12;;;;;;;4.73;2.40;;;;;;;;;;5042065;28;20198;-75
2023/04/03 12:03:42;;;;;;;2.70;2.00;;;;;;;;;;5047891;28;20228;-75
2023/04/03 12:06:13;;;;;;;5.40;2.27;;;;;;;;;;5048806;28;20552;-76
2023/04/03 12:08:43;;;;;;;3.63;1.93;;;;;;;;;;5052944;28;20204;-78
2023/04/03 12:11:09;;;;;;;3.90;1.70;;;;;;;;;;5050128;28;20317;-78
2023/04/03 12:13:36;;;;;;;3.47;1.90;;;;;;;;;;5048254;28;20248;-77
2023/04/03 12:16:03;;;;;;;2.90;2.00;;;;;;;;;;5047331;28;20214;-76
2023/04/03 12:18:48;;;;;;;3.20;1.67;;;;;;;;;;5037573;28;20209;-77
2023/04/03 12:21:18;;;;;;;2.03;1.70;;;;;;;;;;5049084;28;20194;-77
2023/04/03 12:24:02;;;;;;;3.17;1.77;;;;;;;;;;5048277;28;20630;-77
2023/04/03 12:26:34;;;;;;;3.23;2.40;;;;;;;;;;5050409;28;20205;-76
2023/04/03 12:29:08;;;;;;;3.27;1.83;;;;;;;;;;5045222;28;20191;-77
2023/04/03 12:31:40;;;;;;;2.73;1.80;;;;;;;;;;5041331;28;20891;-78
2023/04/03 12:34:21;;;;;;;3.77;1.63;;;;;;;;;;5042143;28;20189;-80
2023/04/03 12:37:00;;;;;;;4.67;1.87;;;;;;;;;;5062484;28;20196;-77
2023/04/03 12:39:35;;;;;;;2.43;1.77;;;;;;;;;;5047761;28;20941;-78
2023/04/03 12:42:12;;;;;;;3.03;1.90;;;;;;;;;;5042948;28;20291;-77
2023/04/03 12:44:44;;;;;;;5.27;2.07;;;;;;;;;;5044577;28;20980;-78
2023/04/03 12:47:24;;;;;;;3.57;2.00;;;;;;;;;;5042077;28;20182;-77
2023/04/03 12:49:51;;;;;;;3.57;1.90;;;;;;;;;;5046498;28;20186;-77
2023/04/03 12:52:26;;;;;;;2.93;1.70;;;;;;;;;;5046777;28;20274;-78
2023/04/03 12:54:53;;;;;;;3.53;1.80;;;;;;;;;;5046291;28;20200;-78
2023/04/03 12:57:21;;;;;;;3.07;2.00;;;;;;;;;;5046751;28;20194;-77
2023/04/03 12:59:48;;;;;;;5.60;1.90;;;;;;;;;;5046670;28;20206;-78
2023/04/03 13:02:24;;;;;;;2.87;1.80;;;;;;;;;;5040473;28;20197;-77
2023/04/03 13:04:51;;;;;;;5.87;1.93;;;;;;;;;;5049774;28;20179;-77
2023/04/03 13:07:38;;;;;;;3.30;2.30;;;;;;;;;;5049933;28;20178;-80
2023/04/03 13:10:07;;;;;;;2.40;1.90;;;;;;;;;;5049942;28;20676;-79
2023/04/03 13:12:46;;;;;;;3.70;2.17;;;;;;;;;;5048122;28;20679;-77
2023/04/03 13:15:14;;;;;;;3.20;1.80;;;;;;;;;;5049569;28;20505;-78
2023/04/03 13:17:42;;;;;;;3.00;1.80;;;;;;;;;;5047544;28;20185;-77
2023/04/03 13:20:17;;;;;;;3.27;1.90;;;;;;;;;;5048897;28;20209;-79
2023/04/03 13:22:52;;;;;;;3.20;1.70;;;;;;;;;;5048349;28;20197;-77
2023/04/03 13:25:20;;;;;;;3.23;1.77;;;;;;;;;;5048559;28;20210;-77
2023/04/03 13:27:46;;;;;;;2.13;1.70;;;;;;;;;;5047598;28;20185;-80
2023/04/03 13:30:38;;;;;;;3.00;1.97;;;;;;;;;;5046873;28;20190;-78
2023/04/03 13:33:06;;;;;;;2.27;1.83;;;;;;;;;;5045406;28;20196;-78
2023/04/03 13:35:33;;;;;;;4.17;2.17;;;;;;;;;;5048012;28;20182;-76
2023/04/03 13:38:01;;;;;;;3.00;1.87;;;;;;;;;;5048810;28;20178;-78
2023/04/03 13:40:27;;;;;;;3.17;1.87;;;;;;;;;;5047557;28;20701;-78
2023/04/03 13:43:05;;;;;;;2.37;1.70;;;;;;;;;;5046988;28;20192;-78
2023/04/03 13:45:32;;;;;;;3.50;2.10;;;;;;;;;;5043796;28;20193;-78
2023/04/03 13:48:17;;;;;;;2.77;1.73;;;;;;;;;;5042843;28;20722;-77
2023/04/03 13:51:00;;;;;;;2.17;1.67;;;;;;;;;;5046529;28;20189;-77
2023/04/03 13:53:28;;;;;;;2.50;1.83;;;;;;;;;;5048362;28;20181;-77
2023/04/03 13:55:56;;;;;;;2.40;1.87;;;;;;;;;;5045856;28;20178;-77
2023/04/03 13:58:26;;;;;;;2.30;1.70;;;;;;;;;;5048812;28;20189;-77
2023/04/03 14:00:54;;;;;;;3.07;1.80;;;;;;;;;;5048271;28;20212;-75
2023/04/03 14:03:31;;;;;;;2.10;1.50;;;;;;;;;;5055324;28;20528;-75
2023/04/03 14:06:04;;;;;;;3.73;1.60;;;;;;;;;;5051987;28;20185;-75
2023/04/03 14:08:30;;;;;;;1.93;1.60;;;;;;;;;;5053603;28;20243;-79
2023/04/03 14:10:56;;;;;;;6.90;2.00;;;;;;;;;;5056460;28;20702;-80
2023/04/03 14:13:23;;;;;;;2.60;1.80;;;;;;;;;;5048542;28;20679;-76
2023/04/03 14:15:50;;;;;;;1.93;1.60;;;;;;;;;;5053887;28;22010;-75
2023/04/03 14:18:20;;;;;;;2.23;1.80;;;;;;;;;;5054278;28;20186;-75
2023/04/03 14:20:48;;;;;;;3.40;1.70;;;;;;;;;;5052997;28;20193;-77
2023/04/03 14:23:15;;;;;;;2.43;1.67;;;;;;;;;;5052975;28;20263;-78
2023/04/03 14:25:41;;;;;;;3.20;1.80;;;;;;;;;;5055438;28;20182;-78
2023/04/03 14:28:14;;;;;;;3.23;1.90;;;;;;;;;;5053585;28;20938;-75
2023/04/03 14:30:40;;;;;;;2.70;1.97;;;;;;;;;;5051835;28;20224;-75
2023/04/03 14:33:07;;;;;;;3.17;1.70;;;;;;;;;;5054718;28;20186;-75
2023/04/03 14:35:33;;;;;;;3.37;1.70;;;;;;;;;;5055471;28;20225;-76
2023/04/03 14:37:59;;;;;;;2.07;1.43;;;;;;;;;;5054943;28;20197;-76
2023/04/03 14:40:30;;;;;;;1.87;1.50;;;;;;;;;;5054908;28;20202;-76
2023/04/03 14:42:58;;;;;;;3.47;1.90;;;;;;;;;;5048993;28;20556;-76
2023/04/03 14:45:24;;;;;;;2.27;1.37;;;;;;;;;;5049518;28;20675;-76
2023/04/03 14:47:52;;;;;;;2.73;1.70;;;;;;;;;;5056061;28;20221;-75
2023/04/03 14:50:23;;;;;;;2.10;1.50;;;;;;;;;;5055124;28;20623;-75
2023/04/03 14:52:51;;;;;;;3.53;1.70;;;;;;;;;;5054254;28;20558;-75
2023/04/03 14:55:18;;;;;;;1.77;1.43;;;;;;;;;;5053093;28;20199;-75